sensor_id;sensor_type;location;lat;lon;timestamp;pressure;altitude;pressure_sealevel;temperature;humidity
5691;BME280;2870;42.680;23.364;2023-04-01T00:01:39;94258.84;;;12.03;nan
5691;BME280;2870;42.680;23.364;2023-04-01T00:04:06;94250.16;;;11.52;nan
5691;BME280;2870;42.680;23.364;2023-04-01T00:06:33;94261.13;;;11.67;nan
5691;BME280;2870;42.680;23.364;2023-04-01T00:09:00;94264.13;;;11.33;nan
5691;BME280;2870;42.680;23.364;2023-04-01T00:11:27;94260.88;;;10.90;nan
5691;BME280;2870;42.680;23.364;2023-04-01T00:13:55;94252.13;;;10.86;nan
5691;BME280;2870;42.680;23.364;2023-04-01T00:16:22;94258.34;;;10.94;nan
5691;BME280;2870;42.680;23.364;2023-04-01T00:18:49;94254.81;;;11.30;nan
5691;BME280;2870;42.680;23.364;2023-04-01T00:21:17;94270.38;;;11.41;nan
5691;BME280;2870;42.680;23.364;2023-04-01T00:23:44;94277.97;;;11.58;nan
5691;BME280;2870;42.680;23.364;2023-04-01T00:26:11;94266.66;;;11.29;nan
5691;BME280;2870;42.680;23.364;2023-04-01T00:28:39;94262.03;;;10.87;nan
5691;BME280;2870;42.680;23.364;2023-04-01T00:31:09;94264.28;;;10.98;nan
5691;BME280;2870;42.680;23.364;2023-04-01T00:33:36;94261.97;;;10.77;nan
5691;BME280;2870;42.680;23.364;2023-04-01T00:36:08;94255.88;;;10.71;nan
5691;BME280;2870;42.680;23.364;2023-04-01T00:38:35;94264.41;;;10.64;nan
5691;BME280;2870;42.680;23.364;2023-04-01T00:41:02;94258.09;;;11.00;nan
5691;BME280;2870;42.680;23.364;2023-04-01T00:43:30;94256.25;;;10.85;nan
5691;BME280;2870;42.680;23.364;2023-04-01T00:45:57;94232.34;;;10.84;nan
5691;BME280;2870;42.680;23.364;2023-04-01T00:48:27;94235.34;;;10.96;nan
5691;BME280;2870;42.680;23.364;2023-04-01T00:50:59;94231.59;;;10.83;nan
5691;BME280;2870;42.680;23.364;2023-04-01T00:53:28;94217.13;;;10.87;nan
5691;BME280;2870;42.680;23.364;2023-04-01T00:56:00;94212.84;;;10.86;nan
5691;BME280;2870;42.680;23.364;2023-04-01T00:58:30;94221.53;;;10.80;nan
5691;BME280;2870;42.680;23.364;2023-04-01T01:00:59;94218.50;;;10.96;nan
5691;BME280;2870;42.680;23.364;2023-04-01T01:03:27;94207.13;;;10.94;nan
5691;BME280;2870;42.680;23.364;2023-04-01T01:06:08;94198.34;;;10.80;nan
5691;BME280;2870;42.680;23.364;2023-04-01T01:08:50;94199.28;;;10.92;nan
5691;BME280;2870;42.680;23.364;2023-04-01T01:11:23;94201.31;;;10.82;nan
5691;BME280;2870;42.680;23.364;2023-04-01T01:13:57;94190.78;;;11.09;nan
5691;BME280;2870;42.680;23.364;2023-04-01T01:16:27;94191.41;;;11.27;nan
5691;BME280;2870;42.680;23.364;2023-04-01T01:19:03;94191.91;;;11.43;nan
5691;BME280;2870;42.680;23.364;2023-04-01T01:21:56;94179.31;;;11.34;nan
5691;BME280;2870;42.680;23.364;2023-04-01T01:24:40;94187.44;;;11.40;nan
5691;BME280;2870;42.680;23.364;2023-04-01T01:27:10;94191.03;;;11.40;nan
5691;BME280;2870;42.680;23.364;2023-04-01T01:29:55;94186.53;;;11.18;nan
5691;BME280;2870;42.680;23.364;2023-04-01T01:32:47;94174.16;;;11.50;nan
5691;BME280;2870;42.680;23.364;2023-04-01T01:35:24;94180.31;;;11.20;nan
5691;BME280;2870;42.680;23.364;2023-04-01T01:37:55;94173.34;;;11.11;nan
5691;BME280;2870;42.680;23.364;2023-04-01T01:40:24;94165.94;;;11.06;nan
5691;BME280;2870;42.680;23.364;2023-04-01T01:42:55;94158.28;;;11.06;nan
5691;BME280;2870;42.680;23.364;2023-04-01T01:45:25;94159.78;;;11.17;nan
5691;BME280;2870;42.680;23.364;2023-04-01T01:47:52;94126.50;;;11.04;nan
5691;BME280;2870;42.680;23.364;2023-04-01T01:50:23;94146.63;;;11.10;nan
5691;BME280;2870;42.680;23.364;2023-04-01T01:52:51;94169.69;;;11.28;nan
5691;BME280;2870;42.680;23.364;2023-04-01T01:55:28;94155.66;;;11.28;nan
5691;BME280;2870;42.680;23.364;2023-04-01T01:57:57;94150.94;;;11.30;nan
5691;BME280;2870;42.680;23.364;2023-04-01T02:00:26;94144.16;;;11.62;nan
5691;BME280;2870;42.680;23.364;2023-04-01T02:02:53;94143.41;;;11.33;nan
5691;BME280;2870;42.680;23.364;2023-04-01T02:05:24;94141.41;;;10.97;nan
5691;BME280;2870;42.680;23.364;2023-04-01T02:07:57;94135.88;;;11.26;nan
5691;BME280;2870;42.680;23.364;2023-04-01T02:10:28;94142.97;;;11.56;nan
5691;BME280;2870;42.680;23.364;2023-04-01T02:12:59;94138.69;;;11.45;nan
5691;BME280;2870;42.680;23.364;2023-04-01T02:15:30;94101.56;;;11.08;nan
5691;BME280;2870;42.680;23.364;2023-04-01T02:17:59;94133.22;;;11.66;nan
5691;BME280;2870;42.680;23.364;2023-04-01T02:20:28;94106.78;;;11.50;nan
5691;BME280;2870;42.680;23.364;2023-04-01T02:22:57;94127.28;;;11.33;nan
5691;BME280;2870;42.680;23.364;2023-04-01T02:25:28;94115.34;;;11.43;nan
5691;BME280;2870;42.680;23.364;2023-04-01T02:27:57;94109.16;;;11.54;nan
5691;BME280;2870;42.680;23.364;2023-04-01T02:30:25;94112.84;;;11.66;nan
5691;BME280;2870;42.680;23.364;2023-04-01T02:32:53;94114.31;;;11.57;nan
5691;BME280;2870;42.680;23.364;2023-04-01T02:35:22;94132.63;;;11.39;nan
5691;BME280;2870;42.680;23.364;2023-04-01T02:37:51;94122.59;;;11.55;nan
5691;BME280;2870;42.680;23.364;2023-04-01T02:40:20;94126.44;;;11.70;nan
5691;BME280;2870;42.680;23.364;2023-04-01T02:42:47;94128.22;;;11.75;nan
5691;BME280;2870;42.680;23.364;2023-04-01T02:45:13;94132.06;;;11.89;nan
5691;BME280;2870;42.680;23.364;2023-04-01T02:47:40;94143.31;;;11.89;nan
5691;BME280;2870;42.680;23.364;2023-04-01T02:50:08;94155.44;;;11.91;nan
5691;BME280;2870;42.680;23.364;2023-04-01T02:52:35;94140.19;;;11.85;nan
5691;BME280;2870;42.680;23.364;2023-04-01T02:55:05;94143.88;;;11.78;nan
5691;BME280;2870;42.680;23.364;2023-04-01T02:57:32;94155.97;;;11.51;nan
5691;BME280;2870;42.680;23.364;2023-04-01T02:59:59;94156.59;;;11.79;nan
5691;BME280;2870;42.680;23.364;2023-04-01T03:02:26;94159.25;;;11.77;nan
5691;BME280;2870;42.680;23.364;2023-04-01T03:04:53;94163.09;;;11.72;nan
5691;BME280;2870;42.680;23.364;2023-04-01T03:07:20;94169.91;;;11.68;nan
5691;BME280;2870;42.680;23.364;2023-04-01T03:09:47;94161.78;;;11.63;nan
5691;BME280;2870;42.680;23.364;2023-04-01T03:12:15;94159.38;;;11.40;nan
5691;BME280;2870;42.680;23.364;2023-04-01T03:14:42;94163.34;;;11.18;nan
5691;BME280;2870;42.680;23.364;2023-04-01T03:17:09;94166.25;;;11.10;nan
5691;BME280;2870;42.680;23.364;2023-04-01T03:19:36;94155.69;;;11.37;nan
5691;BME280;2870;42.680;23.364;2023-04-01T03:22:03;94154.94;;;11.37;nan
5691;BME280;2870;42.680;23.364;2023-04-01T03:24:29;94160.88;;;11.70;nan
5691;BME280;2870;42.680;23.364;2023-04-01T03:26:56;94151.13;;;11.61;nan
5691;BME280;2870;42.680;23.364;2023-04-01T03:29:24;94167.50;;;11.36;nan
5691;BME280;2870;42.680;23.364;2023-04-01T03:31:51;94184.75;;;11.13;nan
5691;BME280;2870;42.680;23.364;2023-04-01T03:34:18;94182.50;;;11.11;nan
5691;BME280;2870;42.680;23.364;2023-04-01T03:36:45;94183.41;;;11.14;nan
5691;BME280;2870;42.680;23.364;2023-04-01T03:39:11;94182.56;;;11.31;nan
5691;BME280;2870;42.680;23.364;2023-04-01T03:41:38;94174.28;;;11.33;nan
5691;BME280;2870;42.680;23.364;2023-04-01T03:44:05;94166.75;;;11.26;nan
5691;BME280;2870;42.680;23.364;2023-04-01T03:46:34;94151.09;;;11.32;nan
5691;BME280;2870;42.680;23.364;2023-04-01T03:49:00;94152.13;;;11.18;nan
5691;BME280;2870;42.680;23.364;2023-04-01T03:51:27;94097.19;;;10.68;nan
5691;BME280;2870;42.680;23.364;2023-04-01T03:53:54;94132.84;;;10.95;nan
5691;BME280;2870;42.680;23.364;2023-04-01T03:56:21;94106.91;;;11.13;nan
5691;BME280;2870;42.680;23.364;2023-04-01T03:58:48;94096.72;;;11.37;nan
5691;BME280;2870;42.680;23.364;2023-04-01T04:01:17;94080.91;;;11.61;nan
5691;BME280;2870;42.680;23.364;2023-04-01T04:03:47;94061.25;;;11.32;nan
5691;BME280;2870;42.680;23.364;2023-04-01T04:06:16;94060.69;;;11.24;nan
5691;BME280;2870;42.680;23.364;2023-04-01T04:08:43;94078.53;;;11.09;nan
5691;BME280;2870;42.680;23.364;2023-04-01T04:11:10;94061.69;;;11.09;nan
5691;BME280;2870;42.680;23.364;2023-04-01T04:13:36;94057.09;;;11.04;nan
5691;BME280;2870;42.680;23.364;2023-04-01T04:16:04;94061.41;;;11.25;nan
5691;BME280;2870;42.680;23.364;2023-04-01T04:18:30;94053.28;;;11.19;nan
5691;BME280;2870;42.680;23.364;2023-04-01T04:20:59;94047.38;;;11.25;nan
5691;BME280;2870;42.680;23.364;2023-04-01T04:23:26;94040.41;;;11.16;nan
5691;BME280;2870;42.680;23.364;2023-04-01T04:25:55;94014.13;;;11.02;nan
5691;BME280;2870;42.680;23.364;2023-04-01T04:28:22;94033.91;;;11.33;nan
5691;BME280;2870;42.680;23.364;2023-04-01T04:30:49;94033.63;;;11.09;nan
5691;BME280;2870;42.680;23.364;2023-04-01T04:33:16;94020.56;;;10.66;nan
5691;BME280;2870;42.680;23.364;2023-04-01T04:35:43;94019.72;;;10.73;nan
5691;BME280;2870;42.680;23.364;2023-04-01T04:38:11;94007.19;;;10.83;nan
5691;BME280;2870;42.680;23.364;2023-04-01T04:40:38;94015.00;;;10.85;nan
5691;BME280;2870;42.680;23.364;2023-04-01T04:43:06;94017.63;;;10.83;nan
5691;BME280;2870;42.680;23.364;2023-04-01T04:45:33;94011.28;;;10.82;nan
5691;BME280;2870;42.680;23.364;2023-04-01T04:48:00;93997.44;;;11.04;nan
5691;BME280;2870;42.680;23.364;2023-04-01T04:50:26;93994.63;;;10.94;nan
5691;BME280;2870;42.680;23.364;2023-04-01T04:52:53;93997.59;;;10.96;nan
5691;BME280;2870;42.680;23.364;2023-04-01T04:55:22;93983.41;;;11.13;nan
5691;BME280;2870;42.680;23.364;2023-04-01T04:57:48;93986.78;;;11.22;nan
5691;BME280;2870;42.680;23.364;2023-04-01T05:00:15;93983.97;;;10.83;nan
5691;BME280;2870;42.680;23.364;2023-04-01T05:02:43;93991.84;;;11.13;nan
5691;BME280;2870;42.680;23.364;2023-04-01T05:05:09;93993.00;;;10.81;nan
5691;BME280;2870;42.680;23.364;2023-04-01T05:07:36;93982.81;;;11.25;nan
5691;BME280;2870;42.680;23.364;2023-04-01T05:10:04;93972.19;;;10.94;nan
5691;BME280;2870;42.680;23.364;2023-04-01T05:12:32;93989.31;;;10.88;nan
5691;BME280;2870;42.680;23.364;2023-04-01T05:15:02;93980.03;;;10.96;nan
5691;BME280;2870;42.680;23.364;2023-04-01T05:17:28;93971.00;;;10.97;nan
5691;BME280;2870;42.680;23.364;2023-04-01T05:19:55;93974.41;;;10.96;nan
5691;BME280;2870;42.680;23.364;2023-04-01T05:22:22;93968.06;;;10.95;nan
5691;BME280;2870;42.680;23.364;2023-04-01T05:24:49;93960.09;;;11.01;nan
5691;BME280;2870;42.680;23.364;2023-04-01T05:27:16;93942.50;;;11.20;nan
5691;BME280;2870;42.680;23.364;2023-04-01T05:29:44;93950.78;;;10.99;nan
5691;BME280;2870;42.680;23.364;2023-04-01T05:32:11;93954.19;;;10.97;nan
5691;BME280;2870;42.680;23.364;2023-04-01T05:34:38;93950.47;;;11.14;nan
5691;BME280;2870;42.680;23.364;2023-04-01T05:37:05;93949.44;;;11.29;nan
5691;BME280;2870;42.680;23.364;2023-04-01T05:39:35;93942.63;;;11.32;nan
5691;BME280;2870;42.680;23.364;2023-04-01T05:42:02;93948.78;;;11.40;nan
5691;BME280;2870;42.680;23.364;2023-04-01T05:44:29;93954.09;;;11.55;nan
5691;BME280;2870;42.680;23.364;2023-04-01T05:46:57;93940.41;;;11.21;nan
5691;BME280;2870;42.680;23.364;2023-04-01T05:49:24;93958.97;;;11.45;nan
5691;BME280;2870;42.680;23.364;2023-04-01T05:51:51;93945.56;;;11.34;nan
5691;BME280;2870;42.680;23.364;2023-04-01T05:54:18;93948.13;;;11.71;nan
5691;BME280;2870;42.680;23.364;2023-04-01T05:56:45;93934.50;;;11.77;nan
5691;BME280;2870;42.680;23.364;2023-04-01T05:59:12;93930.69;;;11.72;nan
5691;BME280;2870;42.680;23.364;2023-04-01T06:01:39;93931.50;;;11.94;nan
5691;BME280;2870;42.680;23.364;2023-04-01T06:04:11;93938.47;;;12.24;nan
5691;BME280;2870;42.680;23.364;2023-04-01T06:06:39;93950.09;;;12.61;nan
5691;BME280;2870;42.680;23.364;2023-04-01T06:09:13;93935.41;;;12.63;nan
5691;BME280;2870;42.680;23.364;2023-04-01T06:11:51;93945.16;;;12.71;nan
5691;BME280;2870;42.680;23.364;2023-04-01T06:14:30;93946.13;;;12.97;nan
5691;BME280;2870;42.680;23.364;2023-04-01T06:17:08;93928.81;;;13.13;nan
5691;BME280;2870;42.680;23.364;2023-04-01T06:19:49;93936.81;;;12.95;nan
5691;BME280;2870;42.680;23.364;2023-04-01T06:22:32;93942.66;;;12.87;nan
5691;BME280;2870;42.680;23.364;2023-04-01T06:25:24;93940.97;;;12.94;nan
5691;BME280;2870;42.680;23.364;2023-04-01T06:28:06;93937.25;;;13.34;nan
5691;BME280;2870;42.680;23.364;2023-04-01T06:30:39;93949.66;;;13.52;nan
5691;BME280;2870;42.680;23.364;2023-04-01T06:33:35;93934.41;;;13.67;nan
5691;BME280;2870;42.680;23.364;2023-04-01T06:36:39;93927.25;;;13.55;nan
5691;BME280;2870;42.680;23.364;2023-04-01T06:39:27;93926.31;;;13.73;nan
5691;BME280;2870;42.680;23.364;2023-04-01T06:42:06;93922.16;;;13.30;nan
5691;BME280;2870;42.680;23.364;2023-04-01T06:44:46;93912.13;;;13.38;nan
5691;BME280;2870;42.680;23.364;2023-04-01T06:47:31;93907.31;;;13.62;nan
5691;BME280;2870;42.680;23.364;2023-04-01T06:50:07;93907.28;;;13.17;nan
5691;BME280;2870;42.680;23.364;2023-04-01T06:52:43;93911.31;;;13.47;nan
5691;BME280;2870;42.680;23.364;2023-04-01T06:55:24;93902.50;;;13.41;nan
5691;BME280;2870;42.680;23.364;2023-04-01T06:57:55;93893.81;;;13.72;nan
5691;BME280;2870;42.680;23.364;2023-04-01T07:00:29;93873.31;;;13.25;nan
5691;BME280;2870;42.680;23.364;2023-04-01T07:03:04;93888.44;;;13.20;nan
5691;BME280;2870;42.680;23.364;2023-04-01T07:05:34;93883.00;;;13.34;nan
5691;BME280;2870;42.680;23.364;2023-04-01T07:08:04;93896.41;;;13.68;nan
5691;BME280;2870;42.680;23.364;2023-04-01T07:10:41;93892.63;;;13.75;nan
5691;BME280;2870;42.680;23.364;2023-04-01T07:13:15;93880.88;;;13.67;nan
5691;BME280;2870;42.680;23.364;2023-04-01T07:15:48;93876.91;;;13.61;nan
5691;BME280;2870;42.680;23.364;2023-04-01T07:18:20;93875.81;;;13.77;nan
5691;BME280;2870;42.680;23.364;2023-04-01T07:20:48;93871.91;;;13.94;nan
5691;BME280;2870;42.680;23.364;2023-04-01T07:23:22;93862.06;;;14.42;nan
5691;BME280;2870;42.680;23.364;2023-04-01T07:25:53;93871.91;;;14.29;nan
5691;BME280;2870;42.680;23.364;2023-04-01T07:28:21;93903.91;;;14.22;nan
5691;BME280;2870;42.680;23.364;2023-04-01T07:30:54;93884.22;;;14.71;nan
5691;BME280;2870;42.680;23.364;2023-04-01T07:33:28;93874.19;;;14.94;nan
5691;BME280;2870;42.680;23.364;2023-04-01T07:36:04;93880.97;;;14.89;nan
5691;BME280;2870;42.680;23.364;2023-04-01T07:38:39;93888.91;;;15.04;nan
5691;BME280;2870;42.680;23.364;2023-04-01T07:41:17;93886.06;;;15.29;nan
5691;BME280;2870;42.680;23.364;2023-04-01T07:43:59;93885.03;;;15.36;nan
5691;BME280;2870;42.680;23.364;2023-04-01T07:46:43;93868.31;;;15.41;nan
5691;BME280;2870;42.680;23.364;2023-04-01T07:49:15;93876.28;;;15.44;nan
5691;BME280;2870;42.680;23.364;2023-04-01T07:51:50;93860.72;;;15.18;nan
5691;BME280;2870;42.680;23.364;2023-04-01T07:54:22;93873.34;;;14.91;nan
5691;BME280;2870;42.680;23.364;2023-04-01T07:56:57;93867.16;;;15.32;nan
5691;BME280;2870;42.680;23.364;2023-04-01T07:59:31;93869.06;;;15.41;nan
5691;BME280;2870;42.680;23.364;2023-04-01T08:02:07;93859.03;;;15.52;nan
5691;BME280;2870;42.680;23.364;2023-04-01T08:04:46;93853.06;;;15.46;nan
5691;BME280;2870;42.680;23.364;2023-04-01T08:07:17;93851.59;;;15.45;nan
5691;BME280;2870;42.680;23.364;2023-04-01T08:09:51;93858.19;;;15.10;nan
5691;BME280;2870;42.680;23.364;2023-04-01T08:12:29;93855.22;;;15.33;nan
5691;BME280;2870;42.680;23.364;2023-04-01T08:15:10;93845.16;;;15.30;nan
5691;BME280;2870;42.680;23.364;2023-04-01T08:17:45;93831.09;;;15.58;nan
5691;BME280;2870;42.680;23.364;2023-04-01T08:20:26;93828.69;;;15.52;nan
5691;BME280;2870;42.680;23.364;2023-04-01T08:23:00;93821.78;;;15.55;nan
5691;BME280;2870;42.680;23.364;2023-04-01T08:25:33;93825.50;;;15.72;nan
5691;BME280;2870;42.680;23.364;2023-04-01T08:28:11;93815.13;;;15.76;nan
5691;BME280;2870;42.680;23.364;2023-04-01T08:30:43;93807.19;;;15.86;nan
5691;BME280;2870;42.680;23.364;2023-04-01T08:33:15;93814.31;;;16.01;nan
5691;BME280;2870;42.680;23.364;2023-04-01T08:35:46;93796.38;;;16.10;nan
5691;BME280;2870;42.680;23.364;2023-04-01T08:38:19;93784.03;;;16.04;nan
5691;BME280;2870;42.680;23.364;2023-04-01T08:41:10;93771.75;;;16.27;nan
5691;BME280;2870;42.680;23.364;2023-04-01T08:43:54;93765.56;;;16.30;nan
5691;BME280;2870;42.680;23.364;2023-04-01T08:46:42;93753.09;;;16.22;nan
5691;BME280;2870;42.680;23.364;2023-04-01T08:49:32;93752.38;;;16.64;nan
5691;BME280;2870;42.680;23.364;2023-04-01T08:52:17;93752.44;;;16.51;nan
5691;BME280;2870;42.680;23.364;2023-04-01T08:55:00;93742.88;;;16.58;nan
5691;BME280;2870;42.680;23.364;2023-04-01T08:57:39;93749.97;;;16.29;nan
5691;BME280;2870;42.680;23.364;2023-04-01T09:00:15;93752.72;;;16.57;nan
5691;BME280;2870;42.680;23.364;2023-04-01T09:08:58;93758.94;;;17.44;nan
5691;BME280;2870;42.680;23.364;2023-04-01T09:11:35;93754.66;;;17.74;nan
5691;BME280;2870;42.680;23.364;2023-04-01T09:14:47;93752.47;;;17.73;nan
5691;BME280;2870;42.680;23.364;2023-04-01T09:17:44;93757.31;;;17.55;nan
5691;BME280;2870;42.680;23.364;2023-04-01T09:20:39;93758.22;;;17.59;nan
5691;BME280;2870;42.680;23.364;2023-04-01T09:23:21;93756.59;;;17.70;nan
5691;BME280;2870;42.680;23.364;2023-04-01T09:26:08;93757.16;;;17.82;nan
5691;BME280;2870;42.680;23.364;2023-04-01T09:28:47;93752.47;;;17.73;nan
5691;BME280;2870;42.680;23.364;2023-04-01T09:31:47;93736.28;;;17.60;nan
5691;BME280;2870;42.680;23.364;2023-04-01T09:37:19;93732.97;;;17.65;nan
5691;BME280;2870;42.680;23.364;2023-04-01T09:40:13;93732.63;;;17.73;nan
5691;BME280;2870;42.680;23.364;2023-04-01T09:42:44;93725.09;;;17.64;nan
5691;BME280;2870;42.680;23.364;2023-04-01T09:48:12;93714.06;;;17.54;nan
5691;BME280;2870;42.680;23.364;2023-04-01T09:50:48;93698.13;;;17.47;nan
5691;BME280;2870;42.680;23.364;2023-04-01T09:53:27;93694.38;;;17.74;nan
5691;BME280;2870;42.680;23.364;2023-04-01T09:59:36;93684.94;;;17.85;nan
5691;BME280;2870;42.680;23.364;2023-04-01T10:02:38;93688.34;;;17.82;nan
5691;BME280;2870;42.680;23.364;2023-04-01T10:09:10;93676.88;;;17.95;nan
5691;BME280;2870;42.680;23.364;2023-04-01T10:15:22;93649.00;;;17.74;nan
5691;BME280;2870;42.680;23.364;2023-04-01T10:21:07;93666.41;;;17.35;nan
5691;BME280;2870;42.680;23.364;2023-04-01T10:24:00;93660.41;;;17.11;nan
5691;BME280;2870;42.680;23.364;2023-04-01T10:27:01;93657.28;;;17.36;nan
5691;BME280;2870;42.680;23.364;2023-04-01T10:29:58;93652.25;;;17.35;nan
5691;BME280;2870;42.680;23.364;2023-04-01T10:35:50;93654.53;;;17.07;nan
5691;BME280;2870;42.680;23.364;2023-04-01T10:38:59;93656.66;;;17.38;nan
5691;BME280;2870;42.680;23.364;2023-04-01T10:42:07;93653.69;;;17.52;nan
5691;BME280;2870;42.680;23.364;2023-04-01T10:48:18;93629.38;;;17.46;nan
5691;BME280;2870;42.680;23.364;2023-04-01T10:51:10;93623.63;;;17.44;nan
5691;BME280;2870;42.680;23.364;2023-04-01T10:53:48;93620.16;;;17.46;nan
5691;BME280;2870;42.680;23.364;2023-04-01T10:56:32;93595.88;;;17.25;nan
5691;BME280;2870;42.680;23.364;2023-04-01T11:02:40;93610.31;;;17.31;nan
5691;BME280;2870;42.680;23.364;2023-04-01T11:08:53;93601.63;;;17.27;nan
5691;BME280;2870;42.680;23.364;2023-04-01T11:12:07;93593.13;;;17.27;nan
5691;BME280;2870;42.680;23.364;2023-04-01T11:14:57;93594.44;;;17.08;nan
5691;BME280;2870;42.680;23.364;2023-04-01T11:20:45;93602.66;;;17.02;nan
5691;BME280;2870;42.680;23.364;2023-04-01T11:23:43;93594.78;;;17.01;nan
5691;BME280;2870;42.680;23.364;2023-04-01T11:26:22;93597.00;;;17.02;nan
5691;BME280;2870;42.680;23.364;2023-04-01T11:29:26;93609.94;;;17.23;nan
5691;BME280;2870;42.680;23.364;2023-04-01T11:32:03;93623.66;;;16.81;nan
5691;BME280;2870;42.680;23.364;2023-04-01T11:34:47;93634.47;;;16.85;nan
5691;BME280;2870;42.680;23.364;2023-04-01T11:37:25;93669.81;;;17.00;nan
5691;BME280;2870;42.680;23.364;2023-04-01T11:40:05;93704.41;;;16.82;nan
5691;BME280;2870;42.680;23.364;2023-04-01T11:42:42;93691.56;;;16.65;nan
5691;BME280;2870;42.680;23.364;2023-04-01T11:45:19;93714.88;;;16.50;nan
5691;BME280;2870;42.680;23.364;2023-04-01T11:47:58;93743.59;;;16.15;nan
5691;BME280;2870;42.680;23.364;2023-04-01T11:50:40;93768.66;;;15.66;nan
5691;BME280;2870;42.680;23.364;2023-04-01T11:53:18;93800.09;;;15.32;nan
5691;BME280;2870;42.680;23.364;2023-04-01T11:56:08;93843.44;;;14.49;nan
5691;BME280;2870;42.680;23.364;2023-04-01T11:58:52;93857.03;;;14.29;nan
5691;BME280;2870;42.680;23.364;2023-04-01T12:01:34;93856.97;;;14.03;nan
5691;BME280;2870;42.680;23.364;2023-04-01T12:07:08;93863.59;;;13.73;nan
5691;BME280;2870;42.680;23.364;2023-04-01T12:09:48;93850.09;;;13.60;nan
5691;BME280;2870;42.680;23.364;2023-04-01T12:12:25;93822.16;;;13.52;nan
5691;BME280;2870;42.680;23.364;2023-04-01T12:15:05;93797.66;;;13.31;nan
5691;BME280;2870;42.680;23.364;2023-04-01T12:17:44;93833.06;;;13.69;nan
5691;BME280;2870;42.680;23.364;2023-04-01T12:20:28;93833.91;;;13.84;nan
5691;BME280;2870;42.680;23.364;2023-04-01T12:23:06;93848.16;;;13.86;nan
5691;BME280;2870;42.680;23.364;2023-04-01T12:25:53;93842.38;;;13.95;nan
5691;BME280;2870;42.680;23.364;2023-04-01T12:28:30;93845.19;;;13.84;nan
5691;BME280;2870;42.680;23.364;2023-04-01T12:31:15;93851.22;;;13.90;nan
5691;BME280;2870;42.680;23.364;2023-04-01T12:33:55;93858.66;;;13.50;nan
5691;BME280;2870;42.680;23.364;2023-04-01T12:36:40;93859.91;;;13.59;nan
5691;BME280;2870;42.680;23.364;2023-04-01T12:39:29;93852.91;;;13.15;nan
5691;BME280;2870;42.680;23.364;2023-04-01T12:42:05;93857.06;;;13.02;nan
5691;BME280;2870;42.680;23.364;2023-04-01T12:44:44;93861.56;;;12.62;nan
5691;BME280;2870;42.680;23.364;2023-04-01T12:50:26;93847.78;;;12.45;nan
5691;BME280;2870;42.680;23.364;2023-04-01T12:53:06;93849.97;;;12.25;nan
5691;BME280;2870;42.680;23.364;2023-04-01T12:55:39;93854.81;;;12.34;nan
5691;BME280;2870;42.680;23.364;2023-04-01T12:58:19;93850.50;;;12.55;nan
5691;BME280;2870;42.680;23.364;2023-04-01T13:01:02;93842.53;;;12.51;nan
5691;BME280;2870;42.680;23.364;2023-04-01T13:03:49;93831.91;;;12.50;nan
5691;BME280;2870;42.680;23.364;2023-04-01T13:06:34;93818.00;;;12.63;nan
5691;BME280;2870;42.680;23.364;2023-04-01T13:09:17;93798.88;;;12.50;nan
5691;BME280;2870;42.680;23.364;2023-04-01T13:11:55;93799.19;;;12.66;nan
5691;BME280;2870;42.680;23.364;2023-04-01T13:14:50;93779.69;;;12.91;nan
5691;BME280;2870;42.680;23.364;2023-04-01T13:17:23;93768.41;;;12.80;nan
5691;BME280;2870;42.680;23.364;2023-04-01T13:19:58;93762.50;;;12.76;nan
5691;BME280;2870;42.680;23.364;2023-04-01T13:22:38;93769.16;;;12.92;nan
5691;BME280;2870;42.680;23.364;2023-04-01T13:25:18;93781.13;;;13.25;nan
5691;BME280;2870;42.680;23.364;2023-04-01T13:27:56;93766.03;;;13.21;nan
5691;BME280;2870;42.680;23.364;2023-04-01T13:30:28;93760.19;;;13.52;nan
5691;BME280;2870;42.680;23.364;2023-04-01T13:33:01;93753.56;;;13.59;nan
5691;BME280;2870;42.680;23.364;2023-04-01T13:35:37;93747.47;;;13.51;nan
5691;BME280;2870;42.680;23.364;2023-04-01T13:38:39;93728.56;;;13.65;nan
5691;BME280;2870;42.680;23.364;2023-04-01T13:41:20;93723.94;;;13.58;nan
5691;BME280;2870;42.680;23.364;2023-04-01T13:43:52;93727.59;;;13.49;nan
5691;BME280;2870;42.680;23.364;2023-04-01T13:46:53;93725.88;;;13.67;nan
5691;BME280;2870;42.680;23.364;2023-04-01T13:49:43;93712.56;;;14.05;nan
5691;BME280;2870;42.680;23.364;2023-04-01T13:52:29;93710.13;;;13.99;nan
5691;BME280;2870;42.680;23.364;2023-04-01T13:55:22;93713.44;;;14.33;nan
5691;BME280;2870;42.680;23.364;2023-04-01T13:58:16;93710.16;;;14.25;nan
5691;BME280;2870;42.680;23.364;2023-04-01T14:00:54;93722.47;;;14.43;nan
5691;BME280;2870;42.680;23.364;2023-04-01T14:03:32;93706.13;;;14.16;nan
5691;BME280;2870;42.680;23.364;2023-04-01T14:06:25;93705.16;;;14.12;nan
5691;BME280;2870;42.680;23.364;2023-04-01T14:09:14;93689.75;;;14.13;nan
5691;BME280;2870;42.680;23.364;2023-04-01T14:11:52;93687.16;;;13.79;nan
5691;BME280;2870;42.680;23.364;2023-04-01T14:14:36;93666.59;;;13.65;nan
5691;BME280;2870;42.680;23.364;2023-04-01T14:17:26;93694.44;;;13.96;nan
5691;BME280;2870;42.680;23.364;2023-04-01T14:20:16;93674.03;;;13.72;nan
5691;BME280;2870;42.680;23.364;2023-04-01T14:22:57;93668.66;;;13.76;nan
5691;BME280;2870;42.680;23.364;2023-04-01T14:28:48;93652.63;;;13.56;nan
5691;BME280;2870;42.680;23.364;2023-04-01T14:31:38;93657.88;;;13.61;nan
5691;BME280;2870;42.680;23.364;2023-04-01T14:34:21;93656.22;;;13.56;nan
5691;BME280;2870;42.680;23.364;2023-04-01T14:36:57;93641.75;;;13.50;nan
5691;BME280;2870;42.680;23.364;2023-04-01T14:39:43;93646.56;;;13.36;nan
5691;BME280;2870;42.680;23.364;2023-04-01T14:42:28;93648.16;;;13.88;nan
5691;BME280;2870;42.680;23.364;2023-04-01T14:45:21;93652.44;;;13.89;nan
5691;BME280;2870;42.680;23.364;2023-04-01T14:47:58;93647.00;;;14.30;nan
5691;BME280;2870;42.680;23.364;2023-04-01T14:50:28;93654.22;;;14.58;nan
5691;BME280;2870;42.680;23.364;2023-04-01T14:52:58;93618.06;;;14.29;nan
5691;BME280;2870;42.680;23.364;2023-04-01T14:55:31;93653.13;;;14.77;nan
5691;BME280;2870;42.680;23.364;2023-04-01T14:57:59;93640.75;;;14.45;nan
5691;BME280;2870;42.680;23.364;2023-04-01T15:00:52;93646.00;;;14.76;nan
5691;BME280;2870;42.680;23.364;2023-04-01T15:03:26;93658.34;;;14.69;nan
5691;BME280;2870;42.680;23.364;2023-04-01T15:06:09;93662.28;;;14.64;nan
5691;BME280;2870;42.680;23.364;2023-04-01T15:08:44;93660.94;;;14.65;nan
5691;BME280;2870;42.680;23.364;2023-04-01T15:11:27;93666.56;;;14.40;nan